Time;durP1;ratioP1;P1;durP2;ratioP2;P2;SDS_P1;SDS_P2;PMS_P1;PMS_P2;Temp;Humidity;BMP_temperature;BMP_pressure;BME280_temperature;BME280_humidity;BME280_pressure;Samples;Min_cycle;Max_cycle;Signal;HPM_P1;HPM_P2
2023/08/20 00:01:27;;;;;;;7.83;6.67;;;;;;;-143.84;50.88;45022.41;5050236;28;20438;-59
2023/08/20 00:03:55;;;;;;;8.10;7.03;;;;;;;-143.84;50.73;45012.88;5049987;28;20529;-59
2023/08/20 00:06:24;;;;;;;15.33;7.60;;;;;;;-143.84;50.52;45022.41;5050076;28;20434;-59
2023/08/20 00:08:51;;;;;;;12.87;7.77;;;;;;;-143.84;50.59;45024.31;5049870;28;20940;-59
2023/08/20 00:11:19;;;;;;;8.60;6.70;;;;;;;-143.84;50.55;44999.56;5050057;28;20916;-59
2023/08/20 00:13:47;;;;;;;8.80;7.90;;;;;;;-143.84;50.51;45009.09;5050054;28;20438;-59
2023/08/20 00:16:15;;;;;;;13.40;7.20;;;;;;;-143.84;50.22;45007.19;5049658;28;20442;-59
2023/08/20 00:18:42;;;;;;;8.07;7.10;;;;;;;-143.84;50.29;45005.28;5049734;28;20473;-59
2023/08/20 00:21:10;;;;;;;11.50;6.53;;;;;;;-143.84;50.14;45010.97;5049558;28;20441;-59
2023/08/20 00:23:38;;;;;;;11.10;6.83;;;;;;;-143.84;49.85;45010.97;5049720;28;20504;-59
2023/08/20 00:26:05;;;;;;;8.33;7.30;;;;;;;-143.84;50.39;45007.19;5049809;28;20433;-59
2023/08/20 00:28:34;;;;;;;9.50;7.33;;;;;;;-143.84;50.32;45024.31;5049635;28;20780;-59
2023/08/20 00:31:02;;;;;;;8.13;7.40;;;;;;;-143.84;50.85;45009.09;5049750;28;20441;-59
2023/08/20 00:33:30;;;;;;;8.33;7.23;;;;;;;-143.84;51.53;45039.53;5049691;28;20489;-59
2023/08/20 00:35:57;;;;;;;17.00;8.03;;;;;;;-143.84;51.66;45037.66;5049642;28;20437;-59
2023/08/20 00:38:24;;;;;;;9.17;7.20;;;;;;;-143.84;52.24;45007.19;5049055;28;20504;-59
2023/08/20 00:40:51;;;;;;;8.80;7.90;;;;;;;-143.84;52.47;45030.03;5049420;28;20434;-59
2023/08/20 00:43:18;;;;;;;8.97;8.07;;;;;;;-143.84;52.58;45037.66;5049285;28;20445;-59
2023/08/20 00:45:45;;;;;;;15.07;8.30;;;;;;;-143.84;53.31;45005.28;5049249;28;20527;-59
2023/08/20 00:48:14;;;;;;;9.00;7.80;;;;;;;-143.84;53.83;45045.25;5049210;28;20947;-59
2023/08/20 00:50:42;;;;;;;9.60;7.33;;;;;;;-143.84;54.46;44993.84;5049163;28;20919;-59
2023/08/20 00:53:12;;;;;;;9.60;7.67;;;;;;;-143.84;54.75;45018.59;5049189;28;20864;-59
2023/08/20 00:55:39;;;;;;;15.67;7.70;;;;;;;-143.84;55.08;45014.78;5048977;28;20904;-59
2023/08/20 00:58:06;;;;;;;11.40;8.50;;;;;;;-143.84;55.31;45018.59;5048982;28;20547;-59
2023/08/20 01:00:33;;;;;;;11.00;8.03;;;;;;;-143.84;55.16;45022.41;5048858;28;20493;-59
2023/08/20 01:03:01;;;;;;;10.67;7.57;;;;;;;-143.84;55.91;45024.31;5049353;28;20460;-59
2023/08/20 01:05:34;;;;;;;10.17;7.70;;;;;;;-143.84;55.80;45020.50;5049345;28;20500;-59
2023/08/20 01:08:15;;;;;;;11.43;7.97;;;;;;;-143.84;56.00;45030.03;5048041;28;20452;-59
2023/08/20 01:10:51;;;;;;;11.30;8.60;;;;;;;-143.84;56.41;45018.59;5049169;28;20512;-59
2023/08/20 01:13:19;;;;;;;13.13;9.33;;;;;;;-143.84;56.24;45031.94;5048908;28;20951;-59
2023/08/20 01:15:46;;;;;;;11.37;8.90;;;;;;;-143.84;56.52;45030.03;5048790;28;20475;-59
2023/08/20 01:18:13;;;;;;;17.50;9.20;;;;;;;-143.84;56.91;45012.88;5048992;28;20496;-59
2023/08/20 01:20:46;;;;;;;16.40;8.40;;;;;;;-143.84;56.96;45010.97;5048910;28;20445;-59
2023/08/20 01:23:49;;;;;;;13.30;8.97;;;;;;;-143.84;57.14;45033.84;5048679;28;20794;-59
2023/08/20 01:26:36;;;;;;;13.83;8.47;;;;;;;-143.84;57.38;45033.84;5048795;28;20449;-59
2023/08/20 01:29:06;;;;;;;13.43;7.63;;;;;;;-143.84;57.87;45043.34;5048519;28;20457;-59
2023/08/20 01:31:34;;;;;;;15.63;8.17;;;;;;;-143.84;58.02;45039.53;5048823;28;20480;-59
2023/08/20 01:34:02;;;;;;;12.80;8.30;;;;;;;-143.84;58.01;45014.78;5048524;28;20430;-59
2023/08/20 01:36:29;;;;;;;11.13;8.43;;;;;;;-143.84;58.73;45037.66;5048773;28;20524;-59
2023/08/20 01:38:56;;;;;;;9.47;8.37;;;;;;;-143.84;59.21;45030.03;5048699;28;20477;-59
2023/08/20 01:41:23;;;;;;;13.13;8.07;;;;;;;-143.84;59.16;45043.34;5048592;28;20460;-59
2023/08/20 01:43:50;;;;;;;8.93;7.80;;;;;;;-143.84;59.10;45037.66;5048628;28;20884;-59
2023/08/20 01:46:19;;;;;;;15.40;7.83;;;;;;;-143.84;59.32;45035.75;5048743;28;20495;-59
2023/08/20 01:48:46;;;;;;;15.53;7.80;;;;;;;-143.84;59.36;45035.75;5048431;28;20920;-59
2023/08/20 01:51:13;;;;;;;8.40;7.60;;;;;;;-143.84;59.13;45037.66;5048696;28;20437;-59
2023/08/20 01:53:40;;;;;;;9.60;8.20;;;;;;;-143.84;59.70;45049.06;5048506;28;20442;-61
2023/08/20 01:56:13;;;;;;;12.50;8.70;;;;;;;-143.84;59.47;45030.03;5048222;28;21029;-59
2023/08/20 01:58:40;;;;;;;16.77;7.30;;;;;;;-143.84;59.23;45024.31;5048395;28;21201;-59
2023/08/20 02:01:07;;;;;;;8.60;7.20;;;;;;;-143.84;59.28;45052.88;5048703;28;21160;-59
2023/08/20 02:03:37;;;;;;;8.40;7.07;;;;;;;-143.84;59.62;45033.84;5048653;28;20507;-59
2023/08/20 02:06:04;;;;;;;10.03;7.67;;;;;;;-143.84;59.53;45016.69;5048356;28;20521;-59
2023/08/20 02:08:32;;;;;;;11.60;7.63;;;;;;;-143.84;59.87;45028.13;5048351;28;20461;-59
2023/08/20 02:11:03;;;;;;;8.20;7.40;;;;;;;-143.84;59.37;45043.34;5048994;28;20434;-59
2023/08/20 02:13:30;;;;;;;8.97;8.03;;;;;;;-143.84;58.78;45035.75;5048506;28;20545;-59
2023/08/20 02:16:01;;;;;;;13.20;8.10;;;;;;;-143.84;58.67;45062.41;5048367;28;20437;-59
2023/08/20 02:18:29;;;;;;;16.53;8.40;;;;;;;-143.84;58.33;45052.88;5049127;28;20473;-59
2023/08/20 02:20:57;;;;;;;8.87;8.00;;;;;;;-143.84;58.38;45041.44;5052071;28;20448;-59
2023/08/20 02:23:25;;;;;;;8.03;7.20;;;;;;;-143.84;58.21;45022.41;5051947;28;20453;-59
2023/08/20 02:25:52;;;;;;;19.30;7.67;;;;;;;-143.84;57.78;45010.97;5052005;28;20471;-59
2023/08/20 02:28:19;;;;;;;7.73;6.93;;;;;;;-143.84;57.85;45037.66;5051709;28;20457;-59
2023/08/20 02:30:47;;;;;;;8.73;7.80;;;;;;;-143.84;57.47;45026.22;5052315;28;20429;-59
2023/08/20 02:33:15;;;;;;;10.60;7.07;;;;;;;-143.84;57.50;45024.31;5051740;28;20430;-59
2023/08/20 02:35:42;;;;;;;16.47;7.20;;;;;;;-143.84;57.58;45020.50;5051808;28;20928;-59
2023/08/20 02:38:11;;;;;;;12.43;7.67;;;;;;;-143.84;57.57;45031.94;5051697;28;20481;-59
2023/08/20 02:40:42;;;;;;;10.13;7.70;;;;;;;-143.84;57.14;45028.13;5051753;28;20454;-59
2023/08/20 02:43:09;;;;;;;8.10;7.03;;;;;;;-143.84;56.55;45020.50;5051791;28;20933;-59
2023/08/20 02:45:42;;;;;;;7.03;6.40;;;;;;;-143.84;56.65;45028.13;5051419;28;20445;-59
2023/08/20 02:48:09;;;;;;;18.43;7.60;;;;;;;-143.84;56.34;45022.41;5051227;28;20437;-59
2023/08/20 02:50:36;;;;;;;8.00;7.37;;;;;;;-143.84;56.31;45024.31;5051452;28;20503;-59
2023/08/20 02:53:03;;;;;;;8.53;6.33;;;;;;;-143.84;56.51;45016.69;5051431;28;20504;-59
2023/08/20 02:55:32;;;;;;;9.10;8.00;;;;;;;-143.84;56.48;45031.94;5051112;28;20777;-59
2023/08/20 02:58:00;;;;;;;12.67;7.50;;;;;;;-143.84;56.77;45033.84;5051033;28;21203;-59
2023/08/20 03:00:27;;;;;;;9.00;7.10;;;;;;;-143.84;56.79;45035.75;5051327;28;20478;-59
2023/08/20 03:02:55;;;;;;;9.23;8.33;;;;;;;-143.84;56.65;45028.13;5051180;28;20546;-59
2023/08/20 03:05:22;;;;;;;11.97;6.80;;;;;;;-143.84;56.41;45026.22;5051242;28;20456;-59
2023/08/20 03:07:50;;;;;;;10.37;7.27;;;;;;;-143.84;56.15;45018.59;5051140;28;20446;-59
2023/08/20 03:10:17;;;;;;;9.43;7.37;;;;;;;-143.84;56.96;45026.22;5051025;28;20434;-59
2023/08/20 03:12:46;;;;;;;11.10;7.67;;;;;;;-143.84;57.28;45022.41;5051149;28;20434;-59
2023/08/20 03:15:13;;;;;;;10.40;7.40;;;;;;;-143.84;57.05;45037.66;5051095;28;20441;-59
2023/08/20 03:17:40;;;;;;;18.50;8.30;;;;;;;-143.84;56.82;45050.97;5051197;28;20441;-59
2023/08/20 03:20:09;;;;;;;12.93;7.50;;;;;;;-143.84;56.51;45022.41;5051283;28;20894;-59
2023/08/20 03:22:38;;;;;;;10.30;8.20;;;;;;;-143.84;56.74;45039.53;5050905;28;20446;-59
2023/08/20 03:25:06;;;;;;;12.83;7.40;;;;;;;-143.84;56.79;45039.53;5050885;28;20442;-59
2023/08/20 03:27:33;;;;;;;17.60;7.60;;;;;;;-143.84;56.21;45037.66;5050711;28;20492;-59
2023/08/20 03:30:01;;;;;;;12.03;7.50;;;;;;;-143.84;55.75;45033.84;5049770;28;20450;-59
2023/08/20 03:32:29;;;;;;;18.00;7.73;;;;;;;-143.84;55.52;45026.22;5051417;28;21341;-59
2023/08/20 03:34:57;;;;;;;11.33;8.23;;;;;;;-143.84;55.51;45010.97;5051136;28;20440;-59
2023/08/20 03:37:24;;;;;;;12.17;7.57;;;;;;;-143.84;55.25;45020.50;5050678;28;20442;-59
2023/08/20 03:39:51;;;;;;;17.10;7.97;;;;;;;-143.84;55.38;45030.03;5050546;28;20543;-59
2023/08/20 03:42:18;;;;;;;8.30;7.50;;;;;;;-143.84;55.38;45018.59;5050563;28;20507;-59
2023/08/20 03:44:45;;;;;;;10.50;7.90;;;;;;;-143.84;55.62;44999.56;5050804;28;20491;-59
2023/08/20 03:47:14;;;;;;;10.73;8.10;;;;;;;-143.84;55.26;45026.22;5050455;28;20962;-59
2023/08/20 03:49:41;;;;;;;11.70;8.20;;;;;;;-143.84;55.29;45030.03;5050632;28;20507;-59
2023/08/20 03:52:08;;;;;;;9.60;7.17;;;;;;;-143.84;55.05;45012.88;5050509;28;21023;-59
2023/08/20 03:54:35;;;;;;;10.43;8.20;;;;;;;-143.84;54.69;45022.41;5050299;28;20472;-59
2023/08/20 03:57:03;;;;;;;8.93;7.77;;;;;;;-143.84;54.08;45020.50;5050091;28;20450;-58
2023/08/20 03:59:31;;;;;;;9.00;8.07;;;;;;;-143.84;52.29;45016.69;5049988;28;20497;-59
2023/08/20 04:01:58;;;;;;;7.97;7.13;;;;;;;-143.84;51.01;45018.59;5050451;28;20518;-59
2023/08/20 04:04:27;;;;;;;8.80;7.47;;;;;;;-143.84;50.51;45009.09;5049985;28;20436;-59
2023/08/20 04:06:55;;;;;;;8.77;7.00;;;;;;;-143.84;50.41;45003.38;5050191;28;21011;-59
2023/08/20 04:09:22;;;;;;;13.13;7.03;;;;;;;-143.84;50.56;45014.78;5050050;28;20576;-59
2023/08/20 04:11:49;;;;;;;8.67;7.77;;;;;;;-143.84;49.76;45024.31;5049974;28;20532;-59
2023/08/20 04:14:16;;;;;;;8.20;7.50;;;;;;;-143.84;49.45;45028.13;5049807;28;20468;-59
2023/08/20 04:16:43;;;;;;;11.87;7.83;;;;;;;-143.84;49.61;45005.28;5050006;28;20795;-59
2023/08/20 04:19:10;;;;;;;8.27;7.40;;;;;;;-143.84;50.03;45033.84;5049669;28;20827;-59
2023/08/20 04:21:39;;;;;;;7.60;7.00;;;;;;;-143.84;50.28;45005.28;5049740;28;20508;-59
2023/08/20 04:24:06;;;;;;;11.40;7.40;;;;;;;-143.84;50.05;44995.75;5049640;28;20970;-59
2023/08/20 04:26:34;;;;;;;8.97;6.90;;;;;;;-143.84;50.16;45018.59;5050021;28;20517;-59
2023/08/20 04:29:01;;;;;;;10.10;7.37;;;;;;;-143.84;50.03;45014.78;5049581;28;20445;-59
2023/08/20 04:31:29;;;;;;;11.93;7.37;;;;;;;-143.84;50.01;45028.13;5049508;28;20440;-59
2023/08/20 04:33:56;;;;;;;8.00;6.47;;;;;;;-143.84;50.17;45007.19;5049586;28;20444;-59
2023/08/20 04:36:23;;;;;;;12.40;7.40;;;;;;;-143.84;49.49;45037.66;5049487;28;20437;-59
2023/08/20 04:38:51;;;;;;;11.43;6.30;;;;;;;-143.84;49.17;44986.22;5049432;28;20485;-59
2023/08/20 04:41:18;;;;;;;12.90;6.30;;;;;;;-143.84;48.37;45018.59;5049351;28;20452;-59
2023/08/20 04:43:45;;;;;;;11.40;7.30;;;;;;;-143.84;47.75;44971.00;5049625;28;20438;-59
2023/08/20 04:46:13;;;;;;;8.73;6.53;;;;;;;-143.84;47.31;44988.13;5049259;28;20442;-59
2023/08/20 04:48:40;;;;;;;9.80;7.97;;;;;;;-143.84;46.21;44972.91;5049170;28;20438;-59
2023/08/20 04:51:08;;;;;;;10.27;6.77;;;;;;;-143.84;45.88;44990.03;5049469;28;20437;-59
2023/08/20 04:53:35;;;;;;;8.70;7.13;;;;;;;-143.84;45.40;44993.84;5049142;28;21267;-59
2023/08/20 04:56:04;;;;;;;7.50;6.70;;;;;;;-143.84;45.10;45007.19;5049446;28;20441;-59
2023/08/20 04:58:31;;;;;;;8.57;6.30;;;;;;;-143.84;44.93;44980.53;5048727;28;20508;-60
2023/08/20 05:00:58;;;;;;;6.17;5.67;;;;;;;-143.84;44.54;44999.56;5049235;28;20449;-59
2023/08/20 05:03:27;;;;;;;9.23;6.37;;;;;;;-143.84;44.63;45007.19;5049257;28;20430;-59
2023/08/20 05:05:54;;;;;;;11.67;5.63;;;;;;;-143.84;44.28;44984.31;5049061;28;20938;-59
2023/08/20 05:08:21;;;;;;;9.07;5.83;;;;;;;-143.84;43.98;44986.22;5048956;28;20441;-59
2023/08/20 05:10:50;;;;;;;9.67;6.30;;;;;;;-143.84;43.88;44984.31;5049256;28;20819;-59
2023/08/20 05:13:20;;;;;;;8.90;6.63;;;;;;;-143.84;43.94;44963.38;5049167;28;20503;-59
2023/08/20 05:15:48;;;;;;;13.60;6.80;;;;;;;-143.84;43.71;44957.66;5049171;28;20548;-59
2023/08/20 05:18:15;;;;;;;11.17;6.20;;;;;;;-143.84;43.62;44946.25;5048829;28;20441;-59
2023/08/20 05:20:42;;;;;;;10.63;6.63;;;;;;;-143.84;43.54;44972.91;5048587;28;20511;-59
2023/08/20 05:23:09;;;;;;;16.40;6.07;;;;;;;-143.84;43.15;44957.66;5048944;28;20495;-59
2023/08/20 05:25:36;;;;;;;9.00;6.17;;;;;;;-143.84;43.41;44959.56;5049211;28;20442;-59
2023/08/20 05:28:04;;;;;;;8.20;6.20;;;;;;;-143.84;43.05;44950.06;5048987;28;20457;-59
2023/08/20 05:30:32;;;;;;;9.73;6.77;;;;;;;-143.84;42.77;44934.81;5049111;28;20449;-59
2023/08/20 05:32:59;;;;;;;6.87;6.07;;;;;;;-143.84;42.68;44950.06;5049228;28;20511;-59
2023/08/20 05:35:26;;;;;;;6.27;5.77;;;;;;;-143.84;42.11;44931.00;5048630;28;20446;-59
2023/08/20 05:37:53;;;;;;;13.03;7.07;;;;;;;-143.84;41.74;44938.63;5048644;28;20997;-59
2023/08/20 05:40:21;;;;;;;7.37;5.50;;;;;;;-143.84;41.32;44940.53;5048606;28;20470;-59
2023/08/20 05:42:48;;;;;;;10.43;5.73;;;;;;;-143.84;41.05;44957.66;5048611;28;20921;-59
2023/08/20 05:45:15;;;;;;;12.80;5.83;;;;;;;-143.84;40.78;44923.41;5048593;28;20437;-59
2023/08/20 05:47:44;;;;;;;15.23;5.90;;;;;;;-143.84;40.34;44923.41;5048658;28;20441;-59
2023/08/20 05:50:11;;;;;;;7.40;6.00;;;;;;;-143.84;39.96;44929.09;5048506;28;20446;-59
2023/08/20 05:52:38;;;;;;;8.40;6.10;;;;;;;-143.84;39.92;44894.84;5048763;28;20503;-59
2023/08/20 05:55:06;;;;;;;6.17;5.67;;;;;;;-143.84;39.27;44911.97;5052290;28;20507;-59
2023/08/20 05:57:33;;;;;;;5.70;5.30;;;;;;;-143.84;39.04;44931.00;5052500;28;20445;-59
2023/08/20 06:00:00;;;;;;;7.30;6.00;;;;;;;-143.84;38.79;44932.91;5052231;28;20485;-59
2023/08/20 06:02:27;;;;;;;6.23;5.60;;;;;;;-143.84;38.14;44889.13;5052421;28;20434;-59
2023/08/20 06:04:56;;;;;;;7.20;5.87;;;;;;;-143.84;38.28;44906.25;5052546;28;20870;-59
2023/08/20 06:07:23;;;;;;;9.80;6.70;;;;;;;-143.84;37.75;44896.75;5052425;28;20434;-59
2023/08/20 06:09:50;;;;;;;6.13;5.53;;;;;;;-143.84;37.53;44911.97;5052298;28;21005;-59
2023/08/20 06:12:17;;;;;;;9.10;5.80;;;;;;;-143.84;36.85;44896.75;5052313;28;20514;-59
2023/08/20 06:14:44;;;;;;;12.50;5.73;;;;;;;-143.84;37.02;44885.31;5052216;28;20446;-59
2023/08/20 06:17:11;;;;;;;6.40;5.83;;;;;;;-143.84;36.49;44891.03;5052163;28;20999;-59
2023/08/20 06:19:38;;;;;;;6.63;5.27;;;;;;;-143.84;36.09;44881.50;5052081;28;20841;-59
2023/08/20 06:22:07;;;;;;;6.13;5.63;;;;;;;-143.84;35.95;44866.28;5052282;28;20437;-59
2023/08/20 06:24:34;;;;;;;10.50;5.00;;;;;;;-143.84;35.77;44835.81;5052126;28;20449;-59
2023/08/20 06:27:02;;;;;;;6.60;5.50;;;;;;;-143.84;35.60;44875.78;5051967;28;20840;-59
2023/08/20 06:29:29;;;;;;;12.60;4.80;;;;;;;-143.84;35.45;44841.53;5052207;28;20452;-59
2023/08/20 06:31:56;;;;;;;17.70;5.80;;;;;;;-143.84;35.11;44858.66;5051929;28;20437;-59
2023/08/20 06:34:23;;;;;;;8.17;5.43;;;;;;;-143.84;35.24;44811.06;5051930;28;20870;-59
2023/08/20 06:36:50;;;;;;;6.43;5.57;;;;;;;-143.84;35.46;44866.28;5051848;28;20459;-59
2023/08/20 06:39:19;;;;;;;21.63;5.60;;;;;;;-143.84;35.16;44852.94;5052071;28;20477;-59
2023/08/20 06:41:47;;;;;;;8.13;5.33;;;;;;;-143.84;34.99;44839.63;5051977;28;20476;-59
2023/08/20 06:44:14;;;;;;;10.50;5.43;;;;;;;-143.84;34.81;44830.09;5051755;28;20495;-59
2023/08/20 06:46:42;;;;;;;14.83;5.20;;;;;;;-143.84;33.88;44793.91;5051683;28;20533;-59
2023/08/20 06:49:09;;;;;;;11.77;5.70;;;;;;;-143.84;33.66;44837.72;5051660;28;20477;-59
2023/08/20 06:51:36;;;;;;;11.50;5.17;;;;;;;-143.84;33.05;44795.81;5045444;28;20434;-59
2023/08/20 06:54:05;;;;;;;8.80;4.90;;;;;;;-143.84;32.79;44803.44;5042205;28;20443;-59
2023/08/20 06:56:34;;;;;;;6.63;4.27;;;;;;;-143.84;32.57;44793.91;5046125;28;20446;-59
2023/08/20 06:59:02;;;;;;;5.33;4.13;;;;;;;-143.84;32.40;44780.59;5051086;28;20543;-59
2023/08/20 07:01:30;;;;;;;10.40;5.00;;;;;;;-143.84;32.31;44780.59;5051553;28;20473;-59
2023/08/20 07:03:57;;;;;;;6.50;4.30;;;;;;;-143.84;32.31;44790.13;5051026;28;20437;-59
2023/08/20 07:06:24;;;;;;;11.93;5.07;;;;;;;-143.84;31.78;44782.50;5050061;28;20442;-59
2023/08/20 07:08:51;;;;;;;14.00;5.77;;;;;;;-143.84;32.05;44780.59;5051311;28;20940;-59
2023/08/20 07:11:18;;;;;;;5.97;4.10;;;;;;;-143.84;31.25;44767.25;5051253;28;20441;-59
2023/08/20 07:13:47;;;;;;;11.33;4.73;;;;;;;-143.84;31.65;44784.41;5051133;28;20448;-59
2023/08/20 07:16:14;;;;;;;12.50;5.37;;;;;;;-143.84;31.43;44755.84;5051171;28;20471;-59
2023/08/20 07:18:41;;;;;;;8.53;4.73;;;;;;;-143.84;31.38;44753.94;5050819;28;20978;-60
2023/08/20 07:21:08;;;;;;;11.43;5.30;;;;;;;-143.84;31.45;44748.22;5051010;28;20485;-59
2023/08/20 07:23:36;;;;;;;12.77;4.40;;;;;;;-143.84;30.99;44733.00;5038134;28;20462;-59
2023/08/20 07:26:07;;;;;;;9.10;4.50;;;;;;;-143.84;30.80;44750.13;5047054;28;20533;-59
2023/08/20 07:31:20;;;;;;;6.83;3.87;;;;;;;-143.84;30.88;44742.50;5050814;28;20433;-59
2023/08/20 07:33:48;;;;;;;6.93;5.10;;;;;;;-143.84;31.09;44725.38;5050312;28;20446;-59
2023/08/20 07:36:15;;;;;;;7.67;4.20;;;;;;;-143.84;30.26;44719.66;5050814;28;20465;-59
2023/08/20 07:38:43;;;;;;;5.30;4.80;;;;;;;-143.84;29.70;44715.84;5050170;28;20457;-59
2023/08/20 07:41:10;;;;;;;10.03;5.00;;;;;;;-143.84;30.04;44742.50;5050555;28;20990;-59
2023/08/20 07:43:39;;;;;;;13.37;4.37;;;;;;;-143.84;30.36;44721.56;5047211;28;20461;-59
2023/08/20 07:46:06;;;;;;;11.50;5.07;;;;;;;-143.84;30.47;44683.50;5050373;28;20805;-59
2023/08/20 07:48:35;;;;;;;5.10;4.43;;;;;;;-143.84;30.08;44698.72;5050841;28;20458;-59
2023/08/20 07:51:03;;;;;;;10.83;5.87;;;;;;;-143.84;30.17;44681.59;5050360;28;20434;-59
2023/08/20 07:53:30;;;;;;;6.60;5.20;;;;;;;-143.84;30.27;44691.09;5050467;28;20437;-59
2023/08/20 07:55:57;;;;;;;8.30;4.53;;;;;;;-143.84;29.87;44698.72;5050585;28;20438;-59
2023/08/20 07:58:25;;;;;;;11.13;5.50;;;;;;;-143.84;29.90;44675.88;5047006;28;20964;-59
2023/08/20 08:00:52;;;;;;;6.93;5.10;;;;;;;-143.84;29.69;44681.59;5038087;28;20462;-59
2023/08/20 08:03:19;;;;;;;7.40;5.27;;;;;;;-143.84;30.32;44685.38;5038694;28;20443;-58
2023/08/20 08:05:49;;;;;;;9.60;5.97;;;;;;;-143.84;30.04;44715.84;5040458;28;20430;-59
2023/08/20 08:08:17;;;;;;;17.33;6.27;;;;;;;-143.84;29.90;44721.56;5041006;28;20430;-59
2023/08/20 08:10:45;;;;;;;11.03;6.10;;;;;;;-143.84;30.50;44698.72;5042217;28;20430;-59
2023/08/20 08:13:12;;;;;;;9.70;5.33;;;;;;;-143.84;30.64;44679.69;5038658;28;20430;-59
2023/08/20 08:15:40;;;;;;;10.80;5.23;;;;;;;-143.84;30.47;44713.94;5038398;28;20438;-59
2023/08/20 08:18:07;;;;;;;16.53;5.77;;;;;;;-143.84;29.93;44683.50;5037905;28;20450;-59
2023/08/20 08:20:35;;;;;;;13.63;5.20;;;;;;;-143.84;30.64;44683.50;5037234;28;20523;-59
2023/08/20 08:23:04;;;;;;;11.17;5.20;;;;;;;-143.84;30.47;44679.69;5029857;28;20682;-59
2023/08/20 08:25:31;;;;;;;15.23;6.00;;;;;;;;;;5029980;28;20447;-59
2023/08/20 08:27:58;;;;;;;7.93;5.10;;;;;;;-143.84;29.84;44685.38;5029892;28;20977;-59
2023/08/20 08:30:25;;;;;;;11.20;5.40;;;;;;;-143.84;29.44;44672.06;5041619;28;20928;-59
2023/08/20 08:32:52;;;;;;;13.63;5.47;;;;;;;-143.84;29.91;44698.72;5041125;28;20447;-59
2023/08/20 08:35:20;;;;;;;19.83;5.63;;;;;;;-143.84;30.01;44713.94;5036982;28;20443;-59
2023/08/20 08:37:47;;;;;;;6.90;4.70;;;;;;;-143.84;29.98;44713.94;5042364;28;20442;-59
2023/08/20 08:40:16;;;;;;;13.53;5.17;;;;;;;-143.84;29.21;44708.25;5049854;28;20470;-59
2023/08/20 08:42:43;;;;;;;6.57;4.80;;;;;;;-143.84;29.64;44687.28;5049470;28;20438;-59
2023/08/20 08:45:11;;;;;;;12.97;4.77;;;;;;;-143.84;28.72;44668.25;5048845;28;20440;-59
2023/08/20 08:47:41;;;;;;;8.20;5.20;;;;;;;-143.84;28.74;44689.19;5049777;28;20531;-59
2023/08/20 08:50:10;;;;;;;6.20;4.80;;;;;;;-143.84;28.57;44670.16;5049717;28;20565;-59
2023/08/20 08:52:38;;;;;;;5.53;4.97;;;;;;;-143.84;29.33;44656.84;5049289;28;20437;-59
2023/08/20 08:55:08;;;;;;;9.07;5.03;;;;;;;-143.84;28.70;44672.06;5049743;28;20507;-59
2023/08/20 08:57:37;;;;;;;9.13;5.37;;;;;;;-143.84;29.18;44677.78;5036823;28;20530;-59
2023/08/20 09:00:06;;;;;;;11.43;4.93;;;;;;;-143.84;29.85;44643.50;5042294;28;21364;-59
2023/08/20 09:02:33;;;;;;;6.20;5.10;;;;;;;-143.84;29.82;44673.97;5044376;28;20444;-59
2023/08/20 09:05:00;;;;;;;24.60;5.27;;;;;;;-143.84;29.32;44702.53;5048187;28;20450;-59
2023/08/20 09:07:29;;;;;;;9.10;5.27;;;;;;;-143.84;29.73;44672.06;5028982;28;20808;-59
2023/08/20 09:09:58;;;;;;;13.43;5.40;;;;;;;;;;5029131;28;20439;-59
2023/08/20 09:12:26;;;;;;;7.50;5.90;;;;;;;-143.84;30.28;44672.06;5029444;28;20809;-59
2023/08/20 09:14:57;;;;;;;10.07;4.80;;;;;;;;;;5028754;28;20541;-59
2023/08/20 09:17:27;;;;;;;17.50;5.30;;;;;;;-143.84;30.99;44700.63;5032308;28;20453;-58
2023/08/20 09:19:57;;;;;;;11.30;5.40;;;;;;;-143.84;31.59;44679.69;5048823;28;20908;-59
2023/08/20 09:22:24;;;;;;;10.60;5.43;;;;;;;-143.84;32.69;44683.50;5048592;28;20544;-59
2023/08/20 09:24:56;;;;;;;16.33;5.17;;;;;;;-143.84;32.41;44700.63;5049295;28;20811;-58
2023/08/20 09:27:24;;;;;;;11.70;5.50;;;;;;;-143.84;32.78;44689.19;5045405;28;21226;-58
2023/08/20 09:29:53;;;;;;;11.03;5.10;;;;;;;-143.84;33.38;44731.09;5043064;28;20788;-58
2023/08/20 09:32:22;;;;;;;14.60;4.93;;;;;;;-143.84;31.85;44721.56;5049042;28;20433;-58
2023/08/20 09:34:50;;;;;;;5.17;4.33;;;;;;;-143.84;32.20;44698.72;5050879;28;20846;-58
2023/08/20 09:37:19;;;;;;;9.00;4.47;;;;;;;-143.84;32.69;44748.22;5029385;28;20446;-58
2023/08/20 09:39:46;;;;;;;8.57;4.57;;;;;;;-143.84;32.18;44668.25;5034526;28;20860;-59
2023/08/20 09:42:14;;;;;;;11.23;4.23;;;;;;;-143.84;31.90;44744.41;5048451;28;20449;-59
2023/08/20 09:44:42;;;;;;;7.53;3.97;;;;;;;-143.84;31.89;44746.31;5048427;28;20961;-58
2023/08/20 09:47:11;;;;;;;15.03;4.20;;;;;;;-143.84;31.76;44725.38;5048974;28;20781;-58
2023/08/20 09:49:41;;;;;;;9.60;4.17;;;;;;;-143.84;31.23;44733.00;5048718;28;20437;-58
2023/08/20 09:52:09;;;;;;;9.33;4.13;;;;;;;-143.84;32.51;44687.28;5048370;28;20446;-58
2023/08/20 09:54:50;;;;;;;6.20;3.57;;;;;;;-143.84;31.67;44723.47;5048699;28;20846;-59
2023/08/20 09:57:28;;;;;;;12.33;3.77;;;;;;;-143.84;31.63;44734.91;5048552;28;20448;-59
2023/08/20 09:59:56;;;;;;;7.90;3.60;;;;;;;-143.84;32.71;44736.81;5048855;28;20513;-59
2023/08/20 10:02:25;;;;;;;9.07;3.57;;;;;;;-143.84;33.04;44755.84;5045565;28;20505;-59
2023/08/20 10:04:54;;;;;;;6.87;3.50;;;;;;;-143.84;33.48;44725.38;5048695;28;20430;-59
2023/08/20 10:07:24;;;;;;;10.67;4.27;;;;;;;-143.84;34.11;44755.84;5048385;28;20453;-58
2023/08/20 10:09:52;;;;;;;3.77;3.13;;;;;;;-143.84;33.21;44713.94;5048372;28;20440;-58
2023/08/20 10:12:20;;;;;;;8.77;3.37;;;;;;;-143.84;32.51;44753.94;5047905;28;20433;-58
2023/08/20 10:14:47;;;;;;;3.90;3.30;;;;;;;-143.84;31.76;44704.44;5048491;28;20532;-58
2023/08/20 10:17:15;;;;;;;4.57;3.00;;;;;;;-143.84;32.62;44740.59;5048656;28;20434;-58
2023/08/20 10:19:42;;;;;;;3.23;2.93;;;;;;;-143.84;31.83;44752.03;5048367;28;20441;-58
2023/08/20 10:22:12;;;;;;;11.30;3.30;;;;;;;-143.84;31.92;44761.56;5048217;28;20474;-59
2023/08/20 10:24:48;;;;;;;8.83;3.37;;;;;;;-143.84;31.80;44774.88;5048321;28;20473;-58
2023/08/20 10:27:25;;;;;;;6.93;3.47;;;;;;;-143.84;31.86;44744.41;5047918;28;20449;-59
2023/08/20 10:29:54;;;;;;;4.63;2.70;;;;;;;-143.84;31.37;44733.00;5048517;28;20517;-59
2023/08/20 10:32:21;;;;;;;3.60;3.27;;;;;;;-143.84;31.58;44719.66;5048232;28;20460;-58
2023/08/20 10:34:53;;;;;;;10.77;3.50;;;;;;;-143.84;31.03;44748.22;5048257;28;20808;-59
2023/08/20 10:37:29;;;;;;;8.57;3.37;;;;;;;-143.84;30.81;44736.81;5048077;28;20529;-59
2023/08/20 10:39:57;;;;;;;3.67;3.30;;;;;;;-143.84;30.85;44727.28;5049880;28;20469;-59
2023/08/20 10:42:27;;;;;;;4.80;3.17;;;;;;;-143.84;31.44;44769.16;5048110;28;20830;-59
2023/08/20 10:44:58;;;;;;;4.90;3.30;;;;;;;-143.84;30.47;44746.31;5042407;28;20426;-59
2023/08/20 10:47:25;;;;;;;3.00;2.80;;;;;;;-143.84;30.18;44767.25;5041699;28;20522;-59
2023/08/20 10:49:54;;;;;;;4.33;2.70;;;;;;;-143.84;30.57;44763.47;5034743;28;20477;-59
2023/08/20 10:52:21;;;;;;;3.87;3.00;;;;;;;-143.84;29.84;44757.75;5031485;28;20489;-59
2023/08/20 10:54:52;;;;;;;5.43;2.47;;;;;;;-143.84;30.88;44744.41;5044000;28;20434;-59
2023/08/20 10:57:21;;;;;;;6.20;2.93;;;;;;;-143.84;30.26;44740.59;5045753;28;20481;-59
2023/08/20 10:59:59;;;;;;;11.73;3.47;;;;;;;-143.84;29.75;44818.66;5041076;28;20557;-59
2023/08/20 11:02:26;;;;;;;4.27;2.83;;;;;;;-143.84;29.87;44721.56;5031395;28;20573;-59
2023/08/20 11:04:54;;;;;;;13.17;3.70;;;;;;;-143.84;29.90;44765.34;5031914;28;20434;-58
2023/08/20 11:07:23;;;;;;;4.10;2.60;;;;;;;-143.84;30.73;44772.97;5031324;28;20454;-59
2023/08/20 11:09:53;;;;;;;3.90;2.93;;;;;;;-143.84;30.17;44752.03;5031190;28;20442;-59
2023/08/20 11:12:22;;;;;;;3.00;2.73;;;;;;;-143.84;29.75;44774.88;5031170;28;20426;-59
2023/08/20 11:14:49;;;;;;;3.90;2.33;;;;;;;-143.84;30.58;44742.50;5031515;28;20468;-58
2023/08/20 11:17:16;;;;;;;3.50;3.07;;;;;;;-143.84;30.96;44771.06;5031318;28;20430;-59
2023/08/20 11:19:44;;;;;;;3.60;3.03;;;;;;;-143.84;30.31;44790.13;5031531;28;20884;-59
2023/08/20 11:22:13;;;;;;;5.17;3.17;;;;;;;-143.84;30.50;44769.16;5031163;28;20474;-59